createdAt,value
2019-04-27T00:00:47.030Z,3.30
2019-04-27T00:03:18.121Z,3.13
2019-04-27T00:05:53.633Z,3.23
2019-04-27T00:08:35.658Z,3.43
2019-04-27T00:11:16.301Z,3.07
2019-04-27T00:13:44.118Z,3.40
2019-04-27T00:16:34.538Z,4.07
2019-04-27T00:19:20.550Z,4.30
2019-04-27T00:21:59.859Z,4.63
2019-04-27T00:24:27.511Z,5.23
2019-04-27T00:26:55.133Z,5.07
2019-04-27T00:29:23.646Z,5.17
2019-04-27T00:31:53.415Z,5.80
2019-04-27T00:34:21.632Z,4.77
2019-04-27T00:37:00.664Z,5.57
2019-04-27T00:39:45.785Z,5.33
2019-04-27T00:42:13.529Z,5.73
2019-04-27T00:44:42.873Z,5.80
2019-04-27T00:47:10.643Z,6.30
2019-04-27T00:49:38.272Z,6.43
2019-04-27T00:52:05.902Z,6.17
2019-04-27T00:54:33.993Z,6.20
2019-04-27T00:57:16.185Z,7.03
2019-04-27T01:00:03.188Z,6.20
2019-04-27T01:02:56.859Z,6.27
2019-04-27T01:05:25.821Z,6.30
2019-04-27T01:07:53.758Z,6.47
2019-04-27T01:10:23.240Z,5.80
2019-04-27T01:12:50.740Z,7.20
2019-04-27T01:15:18.381Z,6.33
2019-04-27T01:17:45.959Z,7.00
2019-04-27T01:20:14.928Z,6.70
2019-04-27T01:22:42.570Z,6.17
2019-04-27T01:25:10.206Z,5.97
2019-04-27T01:27:50.250Z,6.07
2019-04-27T01:30:26.398Z,7.10
2019-04-27T01:32:53.998Z,6.53
2019-04-27T01:35:21.644Z,5.77
2019-04-27T01:37:49.299Z,6.23
2019-04-27T01:40:16.933Z,6.23
2019-04-27T01:42:44.537Z,6.20
2019-04-27T01:45:12.180Z,5.97
2019-04-27T01:47:39.776Z,6.50
2019-04-27T01:50:08.722Z,6.40
2019-04-27T01:52:36.461Z,6.27
2019-04-27T01:55:04.077Z,5.93
2019-04-27T01:57:31.701Z,5.80
2019-04-27T01:59:59.347Z,6.30
2019-04-27T02:02:47.341Z,5.70
2019-04-27T02:05:34.909Z,6.17
2019-04-27T02:08:02.704Z,5.80
2019-04-27T02:10:30.347Z,5.67
2019-04-27T02:12:58.718Z,5.63
2019-04-27T02:15:26.411Z,5.50
2019-04-27T02:17:54.027Z,5.77
2019-04-27T02:20:21.658Z,5.90
2019-04-27T02:22:50.744Z,6.37
2019-04-27T02:25:19.252Z,5.63
2019-04-27T02:27:51.617Z,5.50
2019-04-27T02:30:56.831Z,5.33
2019-04-27T02:33:43.080Z,5.53
2019-04-27T02:36:14.902Z,5.57
2019-04-27T02:38:40.621Z,5.00
2019-04-27T02:41:09.966Z,6.00
2019-04-27T02:43:43.635Z,5.70
2019-04-27T02:46:11.257Z,5.80
2019-04-27T02:48:54.741Z,5.13
2019-04-27T02:51:10.206Z,5.03
2019-04-27T02:53:53.990Z,5.33
2019-04-27T02:56:21.858Z,5.20
2019-04-27T02:58:49.801Z,5.23
2019-04-27T03:01:19.878Z,4.70
2019-04-27T03:03:47.152Z,4.60
2019-04-27T03:06:14.772Z,4.30
2019-04-27T03:08:42.807Z,4.80
2019-04-27T03:11:10.578Z,4.20
2019-04-27T03:13:59.948Z,4.30
2019-04-27T03:16:42.839Z,4.70
2019-04-27T03:19:31.448Z,3.80
2019-04-27T03:22:24.713Z,4.40
2019-04-27T03:25:26.878Z,4.00
2019-04-27T03:27:55.884Z,4.00
2019-04-27T03:30:23.936Z,4.70
2019-04-27T03:32:56.683Z,4.00
2019-04-27T03:35:22.690Z,4.93
2019-04-27T03:37:50.611Z,4.20
2019-04-27T03:40:20.439Z,4.50
2019-04-27T03:42:50.225Z,4.67
2019-04-27T03:45:19.959Z,4.40
2019-04-27T03:47:50.084Z,4.50
2019-04-27T03:50:21.993Z,4.50
2019-04-27T03:53:02.383Z,4.93
2019-04-27T03:55:32.455Z,4.63
2019-04-27T03:58:21.539Z,5.00
2019-04-27T04:00:49.573Z,4.60
2019-04-27T04:03:17.357Z,4.50
2019-04-27T04:05:44.970Z,4.33
2019-04-27T04:08:12.590Z,4.50
2019-04-27T04:10:44.468Z,4.57
2019-04-27T04:13:20.432Z,3.90
2019-04-27T04:16:23.499Z,4.30
2019-04-27T04:19:00.772Z,4.13
2019-04-27T04:21:29.826Z,3.87
2019-04-27T04:23:57.859Z,4.13
2019-04-27T04:26:25.456Z,3.93
2019-04-27T04:28:53.081Z,3.67
2019-04-27T04:31:21.086Z,3.90
2019-04-27T04:33:49.261Z,3.73
2019-04-27T04:36:17.018Z,3.90
2019-04-27T04:38:44.697Z,3.67
2019-04-27T04:41:16.031Z,3.90
2019-04-27T04:43:49.580Z,3.47
2019-04-27T04:46:54.522Z,3.70
2019-04-27T04:49:22.160Z,4.00
2019-04-27T04:51:50.360Z,3.63
2019-04-27T04:54:19.877Z,4.00
2019-04-27T04:56:49.397Z,4.07
2019-04-27T04:59:17.071Z,3.73
2019-04-27T05:01:44.705Z,3.60
2019-04-27T05:04:12.482Z,3.80
2019-04-27T05:06:40.086Z,3.53
2019-04-27T05:09:09.302Z,4.00
2019-04-27T05:11:37.060Z,3.53
2019-04-27T05:14:04.699Z,3.60
2019-04-27T05:16:32.928Z,3.30
2019-04-27T05:19:00.671Z,3.70
2019-04-27T05:21:31.291Z,3.53
2019-04-27T05:24:00.793Z,3.50
2019-04-27T05:26:29.476Z,3.70
2019-04-27T05:28:59.134Z,3.37
2019-04-27T05:31:26.685Z,3.40
2019-04-27T05:33:54.308Z,3.40
2019-04-27T05:36:21.937Z,3.47
2019-04-27T05:38:49.904Z,3.63
2019-04-27T05:41:18.724Z,3.47
2019-04-27T05:44:07.672Z,3.63
2019-04-27T05:46:52.653Z,3.80
2019-04-27T05:49:31.255Z,3.60
2019-04-27T05:51:59.523Z,3.40
2019-04-27T05:54:27.226Z,3.50
2019-04-27T05:56:54.853Z,3.50
2019-04-27T05:59:22.504Z,3.83
2019-04-27T06:01:50.097Z,4.27
2019-04-27T06:04:19.341Z,3.57
2019-04-27T06:06:47.118Z,3.70
2019-04-27T06:09:14.759Z,3.73
2019-04-27T06:11:42.366Z,3.60
2019-04-27T06:14:10.007Z,3.67
2019-04-27T06:16:39.227Z,4.20
2019-04-27T06:19:07.133Z,3.90
2019-04-27T06:21:34.784Z,4.47
2019-04-27T06:24:02.395Z,4.47
2019-04-27T06:26:30.171Z,4.07
2019-04-27T06:28:59.443Z,4.40
2019-04-27T06:31:27.373Z,4.40
2019-04-27T06:33:55.001Z,4.53
2019-04-27T06:36:23.277Z,4.27
2019-04-27T06:38:50.897Z,4.57
2019-04-27T06:41:18.976Z,5.00
2019-04-27T06:43:46.673Z,4.53
2019-04-27T06:46:14.329Z,4.90
2019-04-27T06:48:41.944Z,4.60
2019-04-27T06:51:09.798Z,5.03
2019-04-27T06:53:39.228Z,5.43
2019-04-27T06:56:06.808Z,4.93
2019-04-27T06:58:34.422Z,5.60
2019-04-27T07:01:02.047Z,5.60
2019-04-27T07:03:29.664Z,6.30
2019-04-27T07:05:58.869Z,5.80
2019-04-27T07:08:28.720Z,6.07
2019-04-27T07:10:56.191Z,5.60
2019-04-27T07:13:23.804Z,6.00
2019-04-27T07:15:51.437Z,6.50
2019-04-27T07:18:25.865Z,6.33
2019-04-27T07:20:53.553Z,5.87
2019-04-27T07:23:21.137Z,5.50
2019-04-27T07:25:48.853Z,6.47
2019-04-27T07:28:16.476Z,6.50
2019-04-27T07:30:44.112Z,7.93
2019-04-27T07:33:11.754Z,7.30
2019-04-27T07:35:39.423Z,9.00
2019-04-27T07:38:07.148Z,8.27
2019-04-27T07:40:34.797Z,7.93
2019-04-27T07:43:09.426Z,7.70
2019-04-27T07:45:39.476Z,7.87
2019-04-27T07:48:08.963Z,8.57
2019-04-27T07:50:36.646Z,8.83
2019-04-27T07:53:04.292Z,9.00
2019-04-27T07:55:31.913Z,7.83
2019-04-27T07:57:59.918Z,9.20
2019-04-27T08:00:29.739Z,8.47
2019-04-27T08:02:58.600Z,9.03
2019-04-27T08:05:26.366Z,8.33
2019-04-27T08:07:53.980Z,7.90
2019-04-27T08:10:21.620Z,8.83
2019-04-27T08:12:49.810Z,9.53
2019-04-27T08:15:18.931Z,8.90
2019-04-27T08:17:46.778Z,9.70
2019-04-27T08:20:14.394Z,9.23
2019-04-27T08:22:42.050Z,9.40
2019-04-27T08:25:09.670Z,9.33
2019-04-27T08:27:53.734Z,9.60
2019-04-27T08:30:39.504Z,10.30
2019-04-27T08:33:09.153Z,9.97
2019-04-27T08:35:36.826Z,9.73
2019-04-27T08:38:04.475Z,8.83
2019-04-27T08:40:32.080Z,10.57
2019-04-27T08:43:00.333Z,10.87
2019-04-27T08:45:29.268Z,11.23
2019-04-27T08:47:57.076Z,10.97
2019-04-27T08:50:24.702Z,10.17
2019-04-27T08:52:52.307Z,9.83
2019-04-27T08:55:19.934Z,10.47
2019-04-27T08:57:48.878Z,10.43
2019-04-27T09:00:17.068Z,10.70
2019-04-27T09:02:47.284Z,10.50
2019-04-27T09:05:15.916Z,11.10
2019-04-27T09:07:50.209Z,10.70
2019-04-27T09:10:55.689Z,10.00
2019-04-27T09:13:32.454Z,10.10
2019-04-27T09:16:19.628Z,10.47
2019-04-27T09:18:49.780Z,10.73
2019-04-27T09:21:19.111Z,11.67
2019-04-27T09:23:46.852Z,11.13
2019-04-27T09:26:14.481Z,11.00
2019-04-27T09:28:42.135Z,10.50
2019-04-27T09:31:09.803Z,10.70
2019-04-27T09:33:37.419Z,11.67
2019-04-27T09:36:06.097Z,10.80
2019-04-27T09:38:35.647Z,8.40
2019-04-27T09:41:03.364Z,4.97
2019-04-27T09:43:30.986Z,4.30
2019-04-27T09:45:58.630Z,4.20
2019-04-27T09:48:26.222Z,4.20
2019-04-27T09:50:55.796Z,3.43
2019-04-27T09:53:23.267Z,3.80
2019-04-27T09:55:50.944Z,2.70
2019-04-27T09:58:18.747Z,3.20
2019-04-27T10:00:48.424Z,3.60
2019-04-27T10:03:16.071Z,3.97
2019-04-27T10:05:43.696Z,3.60
2019-04-27T10:08:11.290Z,2.70
2019-04-27T10:10:39.089Z,3.40
2019-04-27T10:13:07.116Z,3.33
2019-04-27T10:15:35.641Z,2.87
2019-04-27T10:18:03.455Z,2.33
2019-04-27T10:20:31.153Z,3.00
2019-04-27T10:22:58.818Z,2.93
2019-04-27T10:25:27.778Z,3.47
2019-04-27T10:27:58.161Z,3.20
2019-04-27T10:30:26.061Z,3.10
2019-04-27T10:32:54.138Z,2.97
2019-04-27T10:35:21.937Z,3.33
2019-04-27T10:37:49.926Z,3.23
2019-04-27T10:40:17.573Z,3.03
2019-04-27T10:42:45.884Z,3.53
2019-04-27T10:45:15.624Z,3.60
2019-04-27T10:47:43.334Z,4.00
2019-04-27T10:50:12.212Z,3.53
2019-04-27T10:52:52.624Z,3.40
2019-04-27T10:55:09.322Z,3.07
2019-04-27T10:57:37.000Z,3.10
2019-04-27T11:00:06.717Z,2.97
2019-04-27T11:02:34.588Z,2.77
2019-04-27T11:05:21.828Z,3.13
2019-04-27T11:07:49.635Z,3.20
2019-04-27T11:10:17.241Z,2.93
2019-04-27T11:12:45.789Z,3.10
2019-04-27T11:15:13.826Z,3.00
2019-04-27T11:17:41.471Z,3.37
2019-04-27T11:20:09.505Z,3.60
2019-04-27T11:22:37.199Z,3.23
2019-04-27T11:25:06.212Z,2.77
2019-04-27T11:27:34.043Z,3.00
2019-04-27T11:30:01.672Z,3.37
2019-04-27T11:32:29.309Z,3.37
2019-04-27T11:35:31.529Z,3.30
2019-04-27T11:37:59.309Z,3.50
2019-04-27T11:40:26.906Z,3.67
2019-04-27T11:42:57.041Z,3.70
2019-04-27T11:45:23.943Z,2.00
2019-04-27T11:47:51.553Z,2.10
2019-04-27T11:50:19.272Z,1.73
2019-04-27T11:52:46.899Z,2.20
2019-04-27T11:55:16.077Z,2.10
2019-04-27T11:57:43.885Z,1.97
2019-04-27T12:00:13.723Z,2.80
2019-04-27T12:02:41.344Z,2.23
2019-04-27T12:05:09.091Z,2.37
2019-04-27T12:07:36.701Z,2.40
2019-04-27T12:10:05.704Z,1.83
2019-04-27T12:12:33.418Z,1.50
2019-04-27T12:15:01.138Z,1.40
2019-04-27T12:17:29.259Z,1.50
2019-04-27T12:19:57.010Z,1.50
2019-04-27T12:22:24.629Z,2.10
2019-04-27T12:24:52.270Z,2.47
2019-04-27T12:27:57.629Z,3.73
2019-04-27T12:30:32.308Z,3.53
2019-04-27T12:32:59.987Z,3.40
2019-04-27T12:35:29.518Z,3.03
2019-04-27T12:37:57.128Z,2.80
2019-04-27T12:40:26.819Z,2.37
2019-04-27T12:42:54.682Z,2.63
2019-04-27T12:45:22.336Z,2.40
2019-04-27T12:47:49.990Z,2.47
2019-04-27T12:50:17.845Z,2.40
2019-04-27T12:52:47.626Z,2.33
2019-04-27T12:55:32.156Z,3.17
2019-04-27T12:58:19.301Z,2.63
2019-04-27T13:00:48.573Z,2.77
2019-04-27T13:03:16.173Z,2.52
2019-04-27T13:05:43.793Z,3.02
2019-04-27T13:08:11.405Z,2.67
2019-04-27T13:10:39.199Z,2.27
2019-04-27T13:13:06.790Z,2.47
2019-04-27T13:15:35.663Z,2.50
2019-04-27T13:18:03.545Z,2.58
2019-04-27T13:20:31.214Z,2.42
2019-04-27T13:23:01.654Z,3.75
2019-04-27T13:25:28.402Z,2.60
2019-04-27T13:27:56.720Z,2.85
2019-04-27T13:30:25.743Z,2.90
2019-04-27T13:32:53.470Z,2.85
2019-04-27T13:35:21.360Z,3.05
2019-04-27T13:37:49.026Z,3.15
2019-04-27T13:40:18.509Z,3.00
2019-04-27T13:42:57.249Z,2.83
2019-04-27T13:45:40.925Z,2.70
2019-04-27T13:48:43.507Z,3.47
2019-04-27T13:51:13.416Z,3.00
2019-04-27T13:53:41.154Z,2.90
2019-04-27T13:56:15.039Z,3.90
2019-04-27T13:58:43.212Z,3.37
2019-04-27T14:01:11.476Z,3.10
2019-04-27T14:03:39.133Z,2.50
2019-04-27T14:06:08.095Z,2.87
2019-04-27T14:08:35.884Z,2.90
2019-04-27T14:11:03.615Z,3.10
2019-04-27T14:13:31.351Z,2.67
2019-04-27T14:15:59.058Z,2.77
2019-04-27T14:18:26.777Z,2.60
2019-04-27T14:20:55.787Z,3.07
2019-04-27T14:23:25.404Z,2.70
2019-04-27T14:25:53.055Z,2.50
2019-04-27T14:28:20.698Z,2.10
2019-04-27T14:30:48.724Z,2.10
2019-04-27T14:33:18.423Z,1.73
2019-04-27T14:35:46.033Z,2.10
2019-04-27T14:38:13.787Z,2.27
2019-04-27T14:40:41.510Z,2.27
2019-04-27T14:43:09.198Z,2.05
2019-04-27T14:45:38.305Z,2.30
2019-04-27T14:48:08.145Z,2.47
2019-04-27T14:50:35.941Z,2.12
2019-04-27T14:53:03.657Z,2.55
2019-04-27T14:55:31.296Z,2.62
2019-04-27T14:57:58.997Z,2.30
2019-04-27T15:00:26.681Z,2.90
2019-04-27T15:02:54.348Z,2.50
2019-04-27T15:05:21.997Z,2.43
2019-04-27T15:07:49.757Z,2.93
2019-04-27T15:10:17.924Z,2.93
2019-04-27T15:12:45.560Z,2.87
2019-04-27T15:15:13.163Z,2.30
2019-04-27T15:17:40.815Z,1.73
2019-04-27T15:20:12.377Z,2.47
2019-04-27T15:22:40.464Z,1.97
2019-04-27T15:25:13.038Z,1.90
2019-04-27T15:27:43.181Z,1.60
2019-04-27T15:30:17.777Z,2.05
2019-04-27T15:33:16.082Z,1.30
2019-04-27T15:35:50.007Z,2.37
2019-04-27T15:38:21.057Z,2.05
2019-04-27T15:41:08.848Z,2.30
2019-04-27T15:43:38.726Z,3.07
2019-04-27T15:46:08.150Z,3.23
2019-04-27T15:48:35.936Z,3.10
2019-04-27T15:51:09.520Z,3.10
2019-04-27T15:53:33.070Z,2.90
2019-04-27T15:56:01.888Z,2.70
2019-04-27T15:58:29.659Z,2.90
2019-04-27T16:01:02.410Z,2.60
2019-04-27T16:03:29.807Z,3.07
2019-04-27T16:05:56.107Z,3.17
2019-04-27T16:08:23.761Z,3.50
2019-04-27T16:10:51.400Z,3.37
2019-04-27T16:13:19.059Z,4.10
2019-04-27T16:15:50.306Z,4.20
2019-04-27T16:18:16.178Z,4.83
2019-04-27T16:20:43.858Z,4.77
2019-04-27T16:23:11.614Z,5.13
2019-04-27T16:25:48.598Z,5.40
2019-04-27T16:28:09.677Z,5.67
2019-04-27T16:30:39.142Z,4.87
2019-04-27T16:33:08.604Z,4.90
2019-04-27T16:35:36.487Z,5.10
2019-04-27T16:38:19.350Z,4.90
2019-04-27T16:40:47.047Z,3.93
2019-04-27T16:43:14.662Z,3.77
2019-04-27T16:45:42.370Z,3.03
2019-04-27T16:48:09.981Z,3.40
2019-04-27T16:50:39.056Z,2.90
2019-04-27T16:53:09.060Z,2.53
2019-04-27T16:55:36.237Z,2.90
2019-04-27T16:58:03.913Z,2.50
2019-04-27T17:00:31.633Z,3.07
2019-04-27T17:03:01.951Z,3.50
2019-04-27T17:05:34.274Z,2.50
2019-04-27T17:07:58.124Z,3.07
2019-04-27T17:10:29.056Z,2.70
2019-04-27T17:12:56.531Z,2.77
2019-04-27T17:15:53.472Z,2.57
2019-04-27T17:18:24.356Z,3.20
2019-04-27T17:21:00.971Z,3.27
2019-04-27T17:23:31.143Z,2.70
2019-04-27T17:26:05.977Z,2.70
2019-04-27T17:28:37.473Z,3.23
2019-04-27T17:31:08.539Z,4.60
2019-04-27T17:33:38.182Z,3.73
2019-04-27T17:36:07.919Z,4.03
2019-04-27T17:38:35.514Z,3.43
2019-04-27T17:41:04.717Z,3.60
2019-04-27T17:43:32.708Z,4.13
2019-04-27T17:46:00.314Z,4.37
2019-04-27T17:48:28.822Z,4.83
2019-04-27T17:51:02.561Z,5.23
2019-04-27T17:53:29.942Z,5.93
2019-04-27T17:56:02.669Z,6.33
2019-04-27T17:58:24.962Z,6.23
2019-04-27T18:00:52.666Z,6.90
2019-04-27T18:03:21.187Z,7.73
2019-04-27T18:05:51.856Z,8.40
2019-04-27T18:08:24.642Z,9.27
2019-04-27T18:10:48.172Z,9.70
2019-04-27T18:13:19.022Z,9.50
2019-04-27T18:15:45.853Z,9.20
2019-04-27T18:18:22.905Z,8.67
2019-04-27T18:20:50.940Z,8.27
2019-04-27T18:23:21.420Z,6.70
2019-04-27T18:25:54.965Z,6.87
2019-04-27T18:28:24.931Z,6.23
2019-04-27T18:31:16.196Z,6.47
2019-04-27T18:33:41.563Z,6.20
2019-04-27T18:36:13.696Z,6.50
2019-04-27T18:38:39.224Z,6.03
2019-04-27T18:41:07.918Z,6.67
2019-04-27T18:43:36.350Z,6.80
2019-04-27T18:46:04.008Z,6.67
2019-04-27T18:48:40.097Z,7.17
2019-04-27T18:51:25.264Z,7.63
2019-04-27T18:53:54.248Z,6.50
2019-04-27T18:56:25.093Z,6.17
2019-04-27T18:58:52.721Z,5.17
2019-04-27T19:01:20.321Z,5.80
2019-04-27T19:03:49.497Z,5.80
2019-04-27T19:06:18.787Z,6.07
2019-04-27T19:08:46.504Z,5.93
2019-04-27T19:11:14.156Z,5.97
2019-04-27T19:13:41.792Z,5.10
2019-04-27T19:16:09.402Z,5.33
2019-04-27T19:18:37.826Z,5.63
2019-04-27T19:21:06.509Z,5.43
2019-04-27T19:23:34.199Z,5.80
2019-04-27T19:26:12.736Z,6.00
2019-04-27T19:28:59.890Z,5.57
2019-04-27T19:31:31.130Z,5.70
2019-04-27T19:33:58.757Z,5.13
2019-04-27T19:36:27.946Z,5.50
2019-04-27T19:39:03.869Z,5.50
2019-04-27T19:41:31.865Z,5.00
2019-04-27T19:43:59.942Z,4.37
2019-04-27T19:46:28.818Z,4.80
2019-04-27T19:48:59.047Z,4.93
2019-04-27T19:51:28.233Z,4.33
2019-04-27T19:53:58.026Z,5.00
2019-04-27T19:56:25.397Z,5.30
2019-04-27T19:58:55.633Z,5.47
2019-04-27T20:01:31.583Z,4.87
2019-04-27T20:04:10.436Z,5.30
2019-04-27T20:06:38.483Z,6.23
2019-04-27T20:09:18.635Z,5.73
2019-04-27T20:11:46.450Z,5.63
2019-04-27T20:14:14.144Z,5.13
2019-04-27T20:16:41.846Z,4.90
2019-04-27T20:19:09.453Z,5.30
2019-04-27T20:21:40.793Z,5.63
2019-04-27T20:24:08.548Z,5.07
2019-04-27T20:26:36.223Z,6.07
2019-04-27T20:29:03.926Z,6.03
2019-04-27T20:31:32.574Z,6.73
2019-04-27T20:34:00.357Z,7.53
2019-04-27T20:36:27.979Z,8.47
2019-04-27T20:38:55.723Z,7.57
2019-04-27T20:41:23.365Z,7.47
2019-04-27T20:43:51.082Z,7.97
2019-04-27T20:46:18.825Z,7.07
2019-04-27T20:48:46.459Z,7.43
2019-04-27T20:51:14.113Z,7.13
2019-04-27T20:53:46.139Z,7.10
2019-04-27T20:56:13.861Z,6.30
2019-04-27T20:58:41.506Z,7.13
2019-04-27T21:01:09.221Z,7.20
2019-04-27T21:03:45.688Z,6.83
2019-04-27T21:06:24.491Z,6.57
2019-04-27T21:08:52.109Z,6.67
2019-04-27T21:11:20.941Z,6.77
2019-04-27T21:13:48.697Z,7.10
2019-04-27T21:16:16.354Z,6.43
2019-04-27T21:18:44.032Z,6.60
2019-04-27T21:21:11.688Z,6.17
2019-04-27T21:23:41.256Z,6.37
2019-04-27T21:26:08.901Z,5.93
2019-04-27T21:28:36.541Z,6.57
2019-04-27T21:31:04.231Z,6.43
2019-04-27T21:33:31.925Z,6.73
2019-04-27T21:36:01.327Z,5.77
2019-04-27T21:38:28.990Z,6.03
2019-04-27T21:40:56.646Z,5.00
2019-04-27T21:43:24.374Z,5.17
2019-04-27T21:45:52.057Z,4.90
2019-04-27T21:48:21.170Z,4.73
2019-04-27T21:50:49.037Z,5.13
2019-04-27T21:53:26.898Z,5.13
2019-04-27T21:56:01.950Z,5.23
2019-04-27T21:58:31.487Z,4.83
2019-04-27T22:01:12.908Z,5.57
2019-04-27T22:03:39.429Z,4.77
2019-04-27T22:06:07.053Z,4.67
2019-04-27T22:08:34.683Z,5.23
2019-04-27T22:11:02.358Z,5.67
2019-04-27T22:13:31.209Z,5.00
2019-04-27T22:15:58.997Z,4.50
2019-04-27T22:18:26.618Z,4.10
2019-04-27T22:20:54.260Z,4.23
2019-04-27T22:23:27.833Z,3.73
2019-04-27T22:25:55.420Z,3.90
2019-04-27T22:28:24.399Z,3.40
2019-04-27T22:30:51.982Z,3.70
2019-04-27T22:33:21.354Z,3.80
2019-04-27T22:35:49.102Z,4.17
2019-04-27T22:38:16.762Z,3.30
2019-04-27T22:41:07.159Z,4.00
2019-04-27T22:43:46.873Z,3.47
2019-04-27T22:46:16.997Z,4.03
2019-04-27T22:48:44.634Z,3.97
2019-04-27T22:51:12.249Z,3.73
2019-04-27T22:53:41.060Z,3.30
2019-04-27T22:56:13.606Z,3.20
2019-04-27T22:58:57.089Z,4.07
2019-04-27T23:01:20.998Z,3.80
2019-04-27T23:03:51.565Z,3.57
2019-04-27T23:06:21.528Z,3.53
2019-04-27T23:08:49.152Z,3.63
2019-04-27T23:11:16.783Z,3.77
2019-04-27T23:13:45.323Z,4.17
2019-04-27T23:16:14.745Z,3.70
2019-04-27T23:18:42.390Z,3.40
2019-04-27T23:21:11.732Z,4.00
2019-04-27T23:23:41.220Z,3.60
2019-04-27T23:26:08.973Z,4.43
2019-04-27T23:28:36.655Z,4.53
2019-04-27T23:31:20.988Z,4.20
2019-04-27T23:33:49.028Z,4.10
2019-04-27T23:36:16.658Z,4.37
2019-04-27T23:38:44.315Z,4.43
2019-04-27T23:41:12.039Z,3.43
2019-04-27T23:43:39.740Z,3.87
2019-04-27T23:46:07.377Z,3.50
2019-04-27T23:48:35.052Z,4.20
2019-04-27T23:51:17.816Z,3.83
2019-04-27T23:53:45.840Z,3.53
2019-04-27T23:56:13.455Z,4.00
2019-04-27T23:58:41.185Z,3.63
